sensor_id;sensor_type;location;lat;lon;timestamp;temperature;humidity
39931;DHT22;26635;-35.248;149.138;2022-12-16T00:01:37;18.10;59.00
39931;DHT22;26635;-35.248;149.138;2022-12-16T00:04:07;18.20;58.30
39931;DHT22;26635;-35.248;149.138;2022-12-16T00:06:37;18.30;58.60
39931;DHT22;26635;-35.248;149.138;2022-12-16T00:09:08;18.30;58.20
39931;DHT22;26635;-35.248;149.138;2022-12-16T00:11:38;18.50;58.80
39931;DHT22;26635;-35.248;149.138;2022-12-16T00:14:08;18.60;58.10
39931;DHT22;26635;-35.248;149.138;2022-12-16T00:16:39;18.70;57.60
39931;DHT22;26635;-35.248;149.138;2022-12-16T00:19:10;18.80;56.60
39931;DHT22;26635;-35.248;149.138;2022-12-16T00:21:40;18.90;57.30
39931;DHT22;26635;-35.248;149.138;2022-12-16T00:24:11;19.00;56.90
39931;DHT22;26635;-35.248;149.138;2022-12-16T00:26:41;19.00;58.00
39931;DHT22;26635;-35.248;149.138;2022-12-16T00:29:11;19.00;55.40
39931;DHT22;26635;-35.248;149.138;2022-12-16T00:31:41;19.00;53.10
39931;DHT22;26635;-35.248;149.138;2022-12-16T00:34:20;18.90;57.50
39931;DHT22;26635;-35.248;149.138;2022-12-16T00:36:51;18.90;56.80
39931;DHT22;26635;-35.248;149.138;2022-12-16T00:39:25;18.90;56.10
39931;DHT22;26635;-35.248;149.138;2022-12-16T00:41:55;18.90;55.00
39931;DHT22;26635;-35.248;149.138;2022-12-16T00:44:26;18.70;55.80
39931;DHT22;26635;-35.248;149.138;2022-12-16T00:46:58;18.80;56.80
39931;DHT22;26635;-35.248;149.138;2022-12-16T00:49:28;18.90;57.80
39931;DHT22;26635;-35.248;149.138;2022-12-16T00:51:59;19.10;57.80
39931;DHT22;26635;-35.248;149.138;2022-12-16T00:54:30;19.10;57.30
39931;DHT22;26635;-35.248;149.138;2022-12-16T00:57:00;19.30;58.50
39931;DHT22;26635;-35.248;149.138;2022-12-16T00:59:31;19.40;56.10
39931;DHT22;26635;-35.248;149.138;2022-12-16T01:02:01;19.30;56.90
39931;DHT22;26635;-35.248;149.138;2022-12-16T01:04:32;19.50;57.00
39931;DHT22;26635;-35.248;149.138;2022-12-16T01:07:03;19.60;56.30
39931;DHT22;26635;-35.248;149.138;2022-12-16T01:09:33;19.80;57.40
39931;DHT22;26635;-35.248;149.138;2022-12-16T01:12:05;19.80;55.50
39931;DHT22;26635;-35.248;149.138;2022-12-16T01:14:36;19.90;55.60
39931;DHT22;26635;-35.248;149.138;2022-12-16T01:17:07;19.80;55.70
39931;DHT22;26635;-35.248;149.138;2022-12-16T01:19:38;19.90;56.90
39931;DHT22;26635;-35.248;149.138;2022-12-16T01:22:09;20.00;56.70
39931;DHT22;26635;-35.248;149.138;2022-12-16T01:24:42;20.10;56.20
39931;DHT22;26635;-35.248;149.138;2022-12-16T01:27:14;20.10;56.60
39931;DHT22;26635;-35.248;149.138;2022-12-16T01:29:45;20.20;55.90
39931;DHT22;26635;-35.248;149.138;2022-12-16T01:32:16;20.30;55.60
39931;DHT22;26635;-35.248;149.138;2022-12-16T01:34:52;20.40;54.80
39931;DHT22;26635;-35.248;149.138;2022-12-16T01:37:23;20.40;55.70
39931;DHT22;26635;-35.248;149.138;2022-12-16T01:39:54;20.50;54.00
39931;DHT22;26635;-35.248;149.138;2022-12-16T01:42:25;20.60;55.60
39931;DHT22;26635;-35.248;149.138;2022-12-16T01:45:29;20.50;53.90
39931;DHT22;26635;-35.248;149.138;2022-12-16T01:48:30;20.50;55.30
39931;DHT22;26635;-35.248;149.138;2022-12-16T01:51:00;20.50;55.20
39931;DHT22;26635;-35.248;149.138;2022-12-16T01:53:32;20.60;54.00
39931;DHT22;26635;-35.248;149.138;2022-12-16T01:56:21;20.70;55.10
39931;DHT22;26635;-35.248;149.138;2022-12-16T01:58:52;20.60;53.90
39931;DHT22;26635;-35.248;149.138;2022-12-16T02:01:23;20.50;54.40
39931;DHT22;26635;-35.248;149.138;2022-12-16T02:03:56;20.60;54.90
39931;DHT22;26635;-35.248;149.138;2022-12-16T02:06:31;20.60;53.30
39931;DHT22;26635;-35.248;149.138;2022-12-16T02:09:05;20.60;53.50
39931;DHT22;26635;-35.248;149.138;2022-12-16T02:15:33;20.70;54.20
39931;DHT22;26635;-35.248;149.138;2022-12-16T02:18:40;20.60;52.50
39931;DHT22;26635;-35.248;149.138;2022-12-16T02:30:02;20.70;52.70
39931;DHT22;26635;-35.248;149.138;2022-12-16T02:33:07;20.70;53.20
39931;DHT22;26635;-35.248;149.138;2022-12-16T02:39:22;20.90;54.20
39931;DHT22;26635;-35.248;149.138;2022-12-16T02:42:15;21.00;54.50
39931;DHT22;26635;-35.248;149.138;2022-12-16T02:47:47;21.10;51.30
39931;DHT22;26635;-35.248;149.138;2022-12-16T02:50:36;21.10;51.90
39931;DHT22;26635;-35.248;149.138;2022-12-16T02:53:09;21.10;51.40
39931;DHT22;26635;-35.248;149.138;2022-12-16T02:56:15;20.90;53.30
39931;DHT22;26635;-35.248;149.138;2022-12-16T02:59:08;20.90;54.20
39931;DHT22;26635;-35.248;149.138;2022-12-16T03:01:57;20.90;55.70
39931;DHT22;26635;-35.248;149.138;2022-12-16T03:05:37;20.70;54.40
39931;DHT22;26635;-35.248;149.138;2022-12-16T03:07:48;20.70;55.20
39931;DHT22;26635;-35.248;149.138;2022-12-16T03:10:25;20.80;55.60
39931;DHT22;26635;-35.248;149.138;2022-12-16T03:12:58;21.00;53.90
39931;DHT22;26635;-35.248;149.138;2022-12-16T03:15:32;20.90;54.80
39931;DHT22;26635;-35.248;149.138;2022-12-16T03:18:06;21.00;54.80
39931;DHT22;26635;-35.248;149.138;2022-12-16T03:21:01;21.10;54.10
39931;DHT22;26635;-35.248;149.138;2022-12-16T03:23:43;21.20;54.40
39931;DHT22;26635;-35.248;149.138;2022-12-16T03:26:23;21.10;54.60
39931;DHT22;26635;-35.248;149.138;2022-12-16T03:29:02;21.20;54.80
39931;DHT22;26635;-35.248;149.138;2022-12-16T03:31:47;21.20;54.30
39931;DHT22;26635;-35.248;149.138;2022-12-16T03:37:20;21.20;53.90
39931;DHT22;26635;-35.248;149.138;2022-12-16T03:39:55;21.20;51.40
39931;DHT22;26635;-35.248;149.138;2022-12-16T03:42:28;21.10;51.40
39931;DHT22;26635;-35.248;149.138;2022-12-16T03:44:59;21.10;53.40
39931;DHT22;26635;-35.248;149.138;2022-12-16T03:47:29;21.10;53.20
39931;DHT22;26635;-35.248;149.138;2022-12-16T03:50:00;21.10;54.20
39931;DHT22;26635;-35.248;149.138;2022-12-16T03:52:30;20.90;54.20
39931;DHT22;26635;-35.248;149.138;2022-12-16T03:55:19;20.60;53.30
39931;DHT22;26635;-35.248;149.138;2022-12-16T03:57:49;20.40;54.90
39931;DHT22;26635;-35.248;149.138;2022-12-16T04:00:20;20.30;55.40
39931;DHT22;26635;-35.248;149.138;2022-12-16T04:02:51;20.20;55.50
39931;DHT22;26635;-35.248;149.138;2022-12-16T04:05:23;20.20;55.30
39931;DHT22;26635;-35.248;149.138;2022-12-16T04:07:55;20.30;55.30
39931;DHT22;26635;-35.248;149.138;2022-12-16T04:10:41;20.30;53.50
39931;DHT22;26635;-35.248;149.138;2022-12-16T04:13:31;20.50;53.60
39931;DHT22;26635;-35.248;149.138;2022-12-16T04:16:19;20.50;54.90
39931;DHT22;26635;-35.248;149.138;2022-12-16T04:19:23;20.60;53.60
39931;DHT22;26635;-35.248;149.138;2022-12-16T04:22:34;20.70;55.30
39931;DHT22;26635;-35.248;149.138;2022-12-16T04:25:32;20.80;54.40
39931;DHT22;26635;-35.248;149.138;2022-12-16T04:28:20;20.70;54.70
39931;DHT22;26635;-35.248;149.138;2022-12-16T04:30:50;20.70;55.60
39931;DHT22;26635;-35.248;149.138;2022-12-16T04:33:22;20.60;54.70
39931;DHT22;26635;-35.248;149.138;2022-12-16T04:36:12;20.60;54.70
39931;DHT22;26635;-35.248;149.138;2022-12-16T04:39:02;20.60;55.60
39931;DHT22;26635;-35.248;149.138;2022-12-16T04:41:55;20.50;55.50
39931;DHT22;26635;-35.248;149.138;2022-12-16T04:44:59;20.40;55.40
39931;DHT22;26635;-35.248;149.138;2022-12-16T04:47:48;20.40;55.90
39931;DHT22;26635;-35.248;149.138;2022-12-16T04:50:36;20.30;54.80
39931;DHT22;26635;-35.248;149.138;2022-12-16T04:53:26;20.10;55.60
39931;DHT22;26635;-35.248;149.138;2022-12-16T04:56:15;20.00;55.90
39931;DHT22;26635;-35.248;149.138;2022-12-16T04:59:04;19.90;55.20
39931;DHT22;26635;-35.248;149.138;2022-12-16T05:02:08;19.80;56.10
39931;DHT22;26635;-35.248;149.138;2022-12-16T05:04:57;19.80;56.10
39931;DHT22;26635;-35.248;149.138;2022-12-16T05:07:46;19.90;56.60
39931;DHT22;26635;-35.248;149.138;2022-12-16T05:10:34;20.00;55.40
39931;DHT22;26635;-35.248;149.138;2022-12-16T05:13:22;19.90;55.40
39931;DHT22;26635;-35.248;149.138;2022-12-16T05:16:11;19.90;56.60
39931;DHT22;26635;-35.248;149.138;2022-12-16T05:19:00;20.00;55.80
39931;DHT22;26635;-35.248;149.138;2022-12-16T05:21:55;20.00;56.20
39931;DHT22;26635;-35.248;149.138;2022-12-16T05:24:43;20.00;55.90
39931;DHT22;26635;-35.248;149.138;2022-12-16T05:27:32;20.00;57.20
39931;DHT22;26635;-35.248;149.138;2022-12-16T05:30:20;19.90;54.70
39931;DHT22;26635;-35.248;149.138;2022-12-16T05:33:24;19.90;56.00
39931;DHT22;26635;-35.248;149.138;2022-12-16T05:36:13;19.80;56.10
39931;DHT22;26635;-35.248;149.138;2022-12-16T05:39:03;19.80;55.70
39931;DHT22;26635;-35.248;149.138;2022-12-16T05:41:53;19.80;54.60
39931;DHT22;26635;-35.248;149.138;2022-12-16T05:44:41;19.90;56.90
39931;DHT22;26635;-35.248;149.138;2022-12-16T05:47:32;19.80;55.00
39931;DHT22;26635;-35.248;149.138;2022-12-16T05:50:20;19.70;56.40
39931;DHT22;26635;-35.248;149.138;2022-12-16T05:53:09;19.70;56.10
39931;DHT22;26635;-35.248;149.138;2022-12-16T05:55:59;19.70;55.80
39931;DHT22;26635;-35.248;149.138;2022-12-16T05:58:47;19.70;55.60
39931;DHT22;26635;-35.248;149.138;2022-12-16T06:01:36;19.70;56.40
39931;DHT22;26635;-35.248;149.138;2022-12-16T06:04:24;19.70;55.80
39931;DHT22;26635;-35.248;149.138;2022-12-16T06:07:12;19.60;54.20
39931;DHT22;26635;-35.248;149.138;2022-12-16T06:10:00;19.60;55.50
39931;DHT22;26635;-35.248;149.138;2022-12-16T06:12:49;19.50;56.40
39931;DHT22;26635;-35.248;149.138;2022-12-16T06:15:38;19.50;55.50
39931;DHT22;26635;-35.248;149.138;2022-12-16T06:18:33;19.50;56.00
39931;DHT22;26635;-35.248;149.138;2022-12-16T06:21:22;19.40;55.00
39931;DHT22;26635;-35.248;149.138;2022-12-16T06:24:10;19.30;53.70
39931;DHT22;26635;-35.248;149.138;2022-12-16T06:26:58;19.30;55.80
39931;DHT22;26635;-35.248;149.138;2022-12-16T06:29:46;19.20;55.70
39931;DHT22;26635;-35.248;149.138;2022-12-16T06:32:34;19.20;55.90
39931;DHT22;26635;-35.248;149.138;2022-12-16T06:35:23;19.20;56.10
39931;DHT22;26635;-35.248;149.138;2022-12-16T06:38:13;19.20;57.00
39931;DHT22;26635;-35.248;149.138;2022-12-16T06:41:02;19.10;55.40
39931;DHT22;26635;-35.248;149.138;2022-12-16T06:43:50;19.10;57.80
39931;DHT22;26635;-35.248;149.138;2022-12-16T06:46:40;19.00;58.10
39931;DHT22;26635;-35.248;149.138;2022-12-16T06:49:28;19.00;56.80
39931;DHT22;26635;-35.248;149.138;2022-12-16T06:52:17;19.00;57.50
39931;DHT22;26635;-35.248;149.138;2022-12-16T06:55:07;18.90;56.00
39931;DHT22;26635;-35.248;149.138;2022-12-16T06:57:57;18.90;57.00
39931;DHT22;26635;-35.248;149.138;2022-12-16T07:00:48;18.80;56.30
39931;DHT22;26635;-35.248;149.138;2022-12-16T07:03:36;18.80;56.90
39931;DHT22;26635;-35.248;149.138;2022-12-16T07:06:25;18.80;56.90
39931;DHT22;26635;-35.248;149.138;2022-12-16T07:09:13;18.70;58.20
39931;DHT22;26635;-35.248;149.138;2022-12-16T07:12:01;18.70;57.60
39931;DHT22;26635;-35.248;149.138;2022-12-16T07:14:49;18.70;57.90
39931;DHT22;26635;-35.248;149.138;2022-12-16T07:17:39;18.70;58.50
39931;DHT22;26635;-35.248;149.138;2022-12-16T07:20:27;18.60;58.20
39931;DHT22;26635;-35.248;149.138;2022-12-16T07:23:16;18.50;58.90
39931;DHT22;26635;-35.248;149.138;2022-12-16T07:26:04;18.50;58.50
39931;DHT22;26635;-35.248;149.138;2022-12-16T07:28:53;18.40;56.70
39931;DHT22;26635;-35.248;149.138;2022-12-16T07:31:41;18.30;57.70
39931;DHT22;26635;-35.248;149.138;2022-12-16T07:34:29;18.20;58.60
39931;DHT22;26635;-35.248;149.138;2022-12-16T07:37:17;18.00;58.80
39931;DHT22;26635;-35.248;149.138;2022-12-16T07:40:06;17.90;58.90
39931;DHT22;26635;-35.248;149.138;2022-12-16T07:42:54;17.80;59.60
39931;DHT22;26635;-35.248;149.138;2022-12-16T07:45:51;17.70;59.70
39931;DHT22;26635;-35.248;149.138;2022-12-16T07:48:39;17.70;59.80
39931;DHT22;26635;-35.248;149.138;2022-12-16T07:51:27;17.70;61.20
39931;DHT22;26635;-35.248;149.138;2022-12-16T07:54:15;17.60;59.70
39931;DHT22;26635;-35.248;149.138;2022-12-16T07:57:03;17.50;59.70
39931;DHT22;26635;-35.248;149.138;2022-12-16T07:59:52;17.40;60.00
39931;DHT22;26635;-35.248;149.138;2022-12-16T08:02:40;17.20;61.00
39931;DHT22;26635;-35.248;149.138;2022-12-16T08:05:30;17.00;61.00
39931;DHT22;26635;-35.248;149.138;2022-12-16T08:08:22;16.90;62.30
39931;DHT22;26635;-35.248;149.138;2022-12-16T08:11:11;16.80;61.70
39931;DHT22;26635;-35.248;149.138;2022-12-16T08:13:59;16.70;62.20
39931;DHT22;26635;-35.248;149.138;2022-12-16T08:16:50;16.60;61.30
39931;DHT22;26635;-35.248;149.138;2022-12-16T08:19:39;16.60;61.00
39931;DHT22;26635;-35.248;149.138;2022-12-16T08:22:27;16.50;61.20
39931;DHT22;26635;-35.248;149.138;2022-12-16T08:25:15;16.40;61.70
39931;DHT22;26635;-35.248;149.138;2022-12-16T08:28:03;16.40;61.70
39931;DHT22;26635;-35.248;149.138;2022-12-16T08:30:51;16.40;61.20
39931;DHT22;26635;-35.248;149.138;2022-12-16T08:33:40;16.20;61.70
39931;DHT22;26635;-35.248;149.138;2022-12-16T08:36:28;16.20;61.10
39931;DHT22;26635;-35.248;149.138;2022-12-16T08:39:17;16.20;62.90
39931;DHT22;26635;-35.248;149.138;2022-12-16T08:42:06;16.10;63.20
39931;DHT22;26635;-35.248;149.138;2022-12-16T08:44:54;16.10;63.70
39931;DHT22;26635;-35.248;149.138;2022-12-16T08:47:42;16.00;62.80
39931;DHT22;26635;-35.248;149.138;2022-12-16T08:50:30;16.00;64.00
39931;DHT22;26635;-35.248;149.138;2022-12-16T08:53:18;15.90;63.90
39931;DHT22;26635;-35.248;149.138;2022-12-16T08:56:06;15.80;64.40
39931;DHT22;26635;-35.248;149.138;2022-12-16T08:58:55;15.80;62.80
39931;DHT22;26635;-35.248;149.138;2022-12-16T09:01:44;15.60;63.50
39931;DHT22;26635;-35.248;149.138;2022-12-16T09:04:36;15.60;62.90
39931;DHT22;26635;-35.248;149.138;2022-12-16T09:07:25;15.50;63.90
39931;DHT22;26635;-35.248;149.138;2022-12-16T09:10:14;15.40;64.10
39931;DHT22;26635;-35.248;149.138;2022-12-16T09:13:13;15.30;64.40
39931;DHT22;26635;-35.248;149.138;2022-12-16T09:16:02;15.30;64.50
39931;DHT22;26635;-35.248;149.138;2022-12-16T09:18:52;15.20;64.50
39931;DHT22;26635;-35.248;149.138;2022-12-16T09:21:40;15.10;63.50
39931;DHT22;26635;-35.248;149.138;2022-12-16T09:24:28;15.10;64.50
39931;DHT22;26635;-35.248;149.138;2022-12-16T09:27:17;15.10;64.40
39931;DHT22;26635;-35.248;149.138;2022-12-16T09:30:06;15.00;65.30
39931;DHT22;26635;-35.248;149.138;2022-12-16T09:32:54;15.00;64.20
39931;DHT22;26635;-35.248;149.138;2022-12-16T09:35:44;14.90;65.10
39931;DHT22;26635;-35.248;149.138;2022-12-16T09:38:35;14.80;63.90
39931;DHT22;26635;-35.248;149.138;2022-12-16T09:41:33;14.80;63.50
39931;DHT22;26635;-35.248;149.138;2022-12-16T09:44:56;14.70;65.20
39931;DHT22;26635;-35.248;149.138;2022-12-16T09:48:14;14.70;63.70
39931;DHT22;26635;-35.248;149.138;2022-12-16T09:51:07;14.60;63.30
39931;DHT22;26635;-35.248;149.138;2022-12-16T09:53:59;14.60;63.90
39931;DHT22;26635;-35.248;149.138;2022-12-16T09:56:50;14.60;64.10
39931;DHT22;26635;-35.248;149.138;2022-12-16T09:59:41;14.60;64.20
39931;DHT22;26635;-35.248;149.138;2022-12-16T10:02:33;14.50;64.00
39931;DHT22;26635;-35.248;149.138;2022-12-16T10:05:32;14.50;64.50
39931;DHT22;26635;-35.248;149.138;2022-12-16T10:08:49;14.50;64.30
39931;DHT22;26635;-35.248;149.138;2022-12-16T10:12:29;14.50;64.60
39931;DHT22;26635;-35.248;149.138;2022-12-16T10:27:49;14.30;67.10
39931;DHT22;26635;-35.248;149.138;2022-12-16T10:30:38;14.20;67.30
39931;DHT22;26635;-35.248;149.138;2022-12-16T10:33:28;14.20;67.30
39931;DHT22;26635;-35.248;149.138;2022-12-16T10:36:21;14.10;68.10
39931;DHT22;26635;-35.248;149.138;2022-12-16T10:39:28;14.10;68.20
39931;DHT22;26635;-35.248;149.138;2022-12-16T10:42:29;14.10;68.10
39931;DHT22;26635;-35.248;149.138;2022-12-16T10:45:55;14.10;68.40
39931;DHT22;26635;-35.248;149.138;2022-12-16T10:48:37;14.00;68.40
39931;DHT22;26635;-35.248;149.138;2022-12-16T10:51:28;14.00;68.90
39931;DHT22;26635;-35.248;149.138;2022-12-16T10:54:23;14.00;69.30
39931;DHT22;26635;-35.248;149.138;2022-12-16T11:00:43;13.90;69.50
39931;DHT22;26635;-35.248;149.138;2022-12-16T11:03:35;13.90;69.90
39931;DHT22;26635;-35.248;149.138;2022-12-16T11:06:38;13.80;69.70
39931;DHT22;26635;-35.248;149.138;2022-12-16T11:09:37;13.70;70.10
39931;DHT22;26635;-35.248;149.138;2022-12-16T11:12:30;13.70;70.50
39931;DHT22;26635;-35.248;149.138;2022-12-16T11:15:27;13.70;70.80
39931;DHT22;26635;-35.248;149.138;2022-12-16T11:18:18;13.60;70.90
39931;DHT22;26635;-35.248;149.138;2022-12-16T11:21:17;13.60;70.80
39931;DHT22;26635;-35.248;149.138;2022-12-16T11:24:13;13.50;71.00
39931;DHT22;26635;-35.248;149.138;2022-12-16T11:27:08;13.50;71.50
39931;DHT22;26635;-35.248;149.138;2022-12-16T11:33:17;13.40;71.20
39931;DHT22;26635;-35.248;149.138;2022-12-16T11:39:01;13.30;72.00
39931;DHT22;26635;-35.248;149.138;2022-12-16T11:41:52;13.30;72.00
39931;DHT22;26635;-35.248;149.138;2022-12-16T11:44:53;13.20;71.20
39931;DHT22;26635;-35.248;149.138;2022-12-16T11:47:44;13.20;71.60
39931;DHT22;26635;-35.248;149.138;2022-12-16T11:50:57;13.20;72.10
39931;DHT22;26635;-35.248;149.138;2022-12-16T11:53:46;13.20;72.80
39931;DHT22;26635;-35.248;149.138;2022-12-16T11:56:41;13.10;71.60
39931;DHT22;26635;-35.248;149.138;2022-12-16T11:59:41;13.10;72.20
39931;DHT22;26635;-35.248;149.138;2022-12-16T12:09:16;13.10;72.50
39931;DHT22;26635;-35.248;149.138;2022-12-16T12:27:44;12.80;74.10
39931;DHT22;26635;-35.248;149.138;2022-12-16T12:30:56;12.80;74.60
39931;DHT22;26635;-35.248;149.138;2022-12-16T12:34:06;12.70;74.40
39931;DHT22;26635;-35.248;149.138;2022-12-16T12:40:35;12.60;75.50
39931;DHT22;26635;-35.248;149.138;2022-12-16T12:49:56;12.50;74.90
39931;DHT22;26635;-35.248;149.138;2022-12-16T12:59:27;12.50;73.90
39931;DHT22;26635;-35.248;149.138;2022-12-16T13:02:27;12.50;74.10
39931;DHT22;26635;-35.248;149.138;2022-12-16T13:05:17;12.50;74.00
39931;DHT22;26635;-35.248;149.138;2022-12-16T13:15:07;12.50;73.90
39931;DHT22;26635;-35.248;149.138;2022-12-16T13:20:57;12.40;75.10
39931;DHT22;26635;-35.248;149.138;2022-12-16T13:23:46;12.40;75.50
39931;DHT22;26635;-35.248;149.138;2022-12-16T13:26:35;12.30;74.80
39931;DHT22;26635;-35.248;149.138;2022-12-16T13:29:24;12.20;73.80
39931;DHT22;26635;-35.248;149.138;2022-12-16T13:32:20;12.20;75.30
39931;DHT22;26635;-35.248;149.138;2022-12-16T13:38:18;12.10;75.50
39931;DHT22;26635;-35.248;149.138;2022-12-16T13:50:49;11.90;77.20
39931;DHT22;26635;-35.248;149.138;2022-12-16T13:53:51;11.90;77.20
39931;DHT22;26635;-35.248;149.138;2022-12-16T13:56:47;11.90;77.50
39931;DHT22;26635;-35.248;149.138;2022-12-16T13:59:37;11.80;78.60
39931;DHT22;26635;-35.248;149.138;2022-12-16T14:02:51;11.80;78.00
39931;DHT22;26635;-35.248;149.138;2022-12-16T14:05:42;11.80;79.00
39931;DHT22;26635;-35.248;149.138;2022-12-16T14:08:36;11.90;78.90
39931;DHT22;26635;-35.248;149.138;2022-12-16T14:11:42;11.90;79.10
39931;DHT22;26635;-35.248;149.138;2022-12-16T14:14:50;11.90;78.80
39931;DHT22;26635;-35.248;149.138;2022-12-16T14:17:53;11.90;79.60
39931;DHT22;26635;-35.248;149.138;2022-12-16T14:20:54;11.90;79.20
39931;DHT22;26635;-35.248;149.138;2022-12-16T14:23:59;11.80;79.20
39931;DHT22;26635;-35.248;149.138;2022-12-16T14:26:52;11.90;79.10
39931;DHT22;26635;-35.248;149.138;2022-12-16T14:29:42;11.90;79.30
39931;DHT22;26635;-35.248;149.138;2022-12-16T14:32:34;11.90;79.70
39931;DHT22;26635;-35.248;149.138;2022-12-16T14:35:25;12.00;79.30
39931;DHT22;26635;-35.248;149.138;2022-12-16T14:38:29;12.10;79.60
39931;DHT22;26635;-35.248;149.138;2022-12-16T14:41:23;12.10;79.40
39931;DHT22;26635;-35.248;149.138;2022-12-16T14:44:21;12.10;79.20
39931;DHT22;26635;-35.248;149.138;2022-12-16T14:47:19;12.20;79.10
39931;DHT22;26635;-35.248;149.138;2022-12-16T14:50:27;12.20;78.70
39931;DHT22;26635;-35.248;149.138;2022-12-16T14:53:21;12.20;78.40
39931;DHT22;26635;-35.248;149.138;2022-12-16T14:56:19;12.20;78.40
39931;DHT22;26635;-35.248;149.138;2022-12-16T14:59:16;12.30;78.20
39931;DHT22;26635;-35.248;149.138;2022-12-16T15:02:37;12.20;78.50
39931;DHT22;26635;-35.248;149.138;2022-12-16T15:05:33;12.20;78.60
39931;DHT22;26635;-35.248;149.138;2022-12-16T15:08:23;12.10;78.60
39931;DHT22;26635;-35.248;149.138;2022-12-16T15:11:17;12.10;79.20
39931;DHT22;26635;-35.248;149.138;2022-12-16T15:14:11;12.10;78.10
39931;DHT22;26635;-35.248;149.138;2022-12-16T15:17:00;12.00;77.80
39931;DHT22;26635;-35.248;149.138;2022-12-16T15:19:51;12.00;77.90
39931;DHT22;26635;-35.248;149.138;2022-12-16T15:22:45;11.90;77.40
39931;DHT22;26635;-35.248;149.138;2022-12-16T15:25:37;11.90;77.60
39931;DHT22;26635;-35.248;149.138;2022-12-16T15:28:38;11.90;78.10
39931;DHT22;26635;-35.248;149.138;2022-12-16T15:31:33;11.90;78.20
39931;DHT22;26635;-35.248;149.138;2022-12-16T15:34:53;11.90;78.50
39931;DHT22;26635;-35.248;149.138;2022-12-16T15:37:42;11.80;78.30
39931;DHT22;26635;-35.248;149.138;2022-12-16T15:40:32;11.80;78.40
39931;DHT22;26635;-35.248;149.138;2022-12-16T15:46:29;11.90;79.30
39931;DHT22;26635;-35.248;149.138;2022-12-16T15:49:36;11.90;78.90
39931;DHT22;26635;-35.248;149.138;2022-12-16T15:52:39;11.90;78.60
39931;DHT22;26635;-35.248;149.138;2022-12-16T15:55:37;11.90;78.30
39931;DHT22;26635;-35.248;149.138;2022-12-16T15:58:34;11.80;78.50
39931;DHT22;26635;-35.248;149.138;2022-12-16T16:01:25;11.90;79.00
39931;DHT22;26635;-35.248;149.138;2022-12-16T16:07:20;11.90;78.90
39931;DHT22;26635;-35.248;149.138;2022-12-16T16:10:21;11.80;78.70
39931;DHT22;26635;-35.248;149.138;2022-12-16T16:13:10;11.80;78.60
39931;DHT22;26635;-35.248;149.138;2022-12-16T16:16:00;11.80;78.50
39931;DHT22;26635;-35.248;149.138;2022-12-16T16:18:51;11.80;78.20
39931;DHT22;26635;-35.248;149.138;2022-12-16T16:21:40;11.80;77.30
39931;DHT22;26635;-35.248;149.138;2022-12-16T16:24:28;11.90;77.90
39931;DHT22;26635;-35.248;149.138;2022-12-16T16:27:18;11.90;78.30
39931;DHT22;26635;-35.248;149.138;2022-12-16T16:30:10;11.90;78.20
39931;DHT22;26635;-35.248;149.138;2022-12-16T16:33:17;11.90;78.20
39931;DHT22;26635;-35.248;149.138;2022-12-16T16:36:25;11.80;78.40
39931;DHT22;26635;-35.248;149.138;2022-12-16T16:39:14;11.80;79.10
39931;DHT22;26635;-35.248;149.138;2022-12-16T16:42:03;11.70;79.30
39931;DHT22;26635;-35.248;149.138;2022-12-16T16:44:51;11.60;79.30
39931;DHT22;26635;-35.248;149.138;2022-12-16T16:47:40;11.50;79.90
39931;DHT22;26635;-35.248;149.138;2022-12-16T16:50:28;11.50;78.90
39931;DHT22;26635;-35.248;149.138;2022-12-16T16:53:16;11.40;79.40
39931;DHT22;26635;-35.248;149.138;2022-12-16T16:56:09;11.30;79.60
39931;DHT22;26635;-35.248;149.138;2022-12-16T16:58:59;11.20;79.30
39931;DHT22;26635;-35.248;149.138;2022-12-16T17:01:47;11.20;79.40
39931;DHT22;26635;-35.248;149.138;2022-12-16T17:04:37;11.20;79.40
39931;DHT22;26635;-35.248;149.138;2022-12-16T17:07:26;11.10;79.30
39931;DHT22;26635;-35.248;149.138;2022-12-16T17:10:20;11.10;80.60
39931;DHT22;26635;-35.248;149.138;2022-12-16T17:13:09;11.00;79.80
39931;DHT22;26635;-35.248;149.138;2022-12-16T17:15:58;11.00;80.70
39931;DHT22;26635;-35.248;149.138;2022-12-16T17:18:48;10.90;80.50
39931;DHT22;26635;-35.248;149.138;2022-12-16T17:21:37;10.80;79.90
39931;DHT22;26635;-35.248;149.138;2022-12-16T17:24:26;10.70;80.60
39931;DHT22;26635;-35.248;149.138;2022-12-16T17:27:24;10.70;80.20
39931;DHT22;26635;-35.248;149.138;2022-12-16T17:30:20;10.70;80.80
39931;DHT22;26635;-35.248;149.138;2022-12-16T17:33:15;10.70;80.90
39931;DHT22;26635;-35.248;149.138;2022-12-16T17:36:04;10.70;81.60
39931;DHT22;26635;-35.248;149.138;2022-12-16T17:38:58;10.60;80.70
39931;DHT22;26635;-35.248;149.138;2022-12-16T17:41:47;10.60;81.70
39931;DHT22;26635;-35.248;149.138;2022-12-16T17:44:36;10.70;81.60
39931;DHT22;26635;-35.248;149.138;2022-12-16T17:47:24;10.60;82.20
39931;DHT22;26635;-35.248;149.138;2022-12-16T17:50:13;10.70;81.80
39931;DHT22;26635;-35.248;149.138;2022-12-16T17:53:01;10.70;82.00
39931;DHT22;26635;-35.248;149.138;2022-12-16T17:55:52;10.60;82.80
39931;DHT22;26635;-35.248;149.138;2022-12-16T17:58:40;10.60;82.70
39931;DHT22;26635;-35.248;149.138;2022-12-16T18:01:32;10.60;82.90
39931;DHT22;26635;-35.248;149.138;2022-12-16T18:04:23;10.60;82.70
39931;DHT22;26635;-35.248;149.138;2022-12-16T18:07:11;10.50;83.30
39931;DHT22;26635;-35.248;149.138;2022-12-16T18:10:00;10.50;83.50
39931;DHT22;26635;-35.248;149.138;2022-12-16T18:12:49;10.40;83.60
39931;DHT22;26635;-35.248;149.138;2022-12-16T18:15:37;10.40;83.80
39931;DHT22;26635;-35.248;149.138;2022-12-16T18:18:26;10.30;83.90
39931;DHT22;26635;-35.248;149.138;2022-12-16T18:21:15;10.30;84.20
39931;DHT22;26635;-35.248;149.138;2022-12-16T18:24:07;10.30;84.20
39931;DHT22;26635;-35.248;149.138;2022-12-16T18:26:56;10.40;84.10
39931;DHT22;26635;-35.248;149.138;2022-12-16T18:29:44;10.40;84.30
39931;DHT22;26635;-35.248;149.138;2022-12-16T18:32:32;10.40;84.10
39931;DHT22;26635;-35.248;149.138;2022-12-16T18:35:22;10.40;83.70
39931;DHT22;26635;-35.248;149.138;2022-12-16T18:38:10;10.50;84.10
39931;DHT22;26635;-35.248;149.138;2022-12-16T18:41:03;10.50;83.80
39931;DHT22;26635;-35.248;149.138;2022-12-16T18:43:53;10.50;84.00
39931;DHT22;26635;-35.248;149.138;2022-12-16T18:46:41;10.60;83.80
39931;DHT22;26635;-35.248;149.138;2022-12-16T18:49:30;10.70;83.70